sensor_id;sensor_type;location;lat;lon;timestamp;P1;durP1;ratioP1;P2;durP2;ratioP2
69910;SDS011;63555;49.920;17.868;2024-02-28T00:00:07;185.60;;;36.92;;
69910;SDS011;63555;49.920;17.868;2024-02-28T00:05:10;172.87;;;36.53;;
69910;SDS011;63555;49.920;17.868;2024-02-28T00:10:11;165.67;;;37.77;;
69910;SDS011;63555;49.920;17.868;2024-02-28T00:15:11;187.47;;;39.37;;
69910;SDS011;63555;49.920;17.868;2024-02-28T00:20:11;206.40;;;37.83;;
69910;SDS011;63555;49.920;17.868;2024-02-28T00:25:13;232.93;;;38.30;;
69910;SDS011;63555;49.920;17.868;2024-02-28T00:30:16;169.90;;;36.55;;
69910;SDS011;63555;49.920;17.868;2024-02-28T00:35:17;249.50;;;38.05;;
69910;SDS011;63555;49.920;17.868;2024-02-28T00:40:18;499.57;;;45.70;;
69910;SDS011;63555;49.920;17.868;2024-02-28T00:45:18;177.07;;;36.83;;
69910;SDS011;63555;49.920;17.868;2024-02-28T00:50:18;183.20;;;37.67;;
69910;SDS011;63555;49.920;17.868;2024-02-28T00:55:19;232.13;;;37.07;;
69910;SDS011;63555;49.920;17.868;2024-02-28T01:00:19;174.80;;;37.63;;
69910;SDS011;63555;49.920;17.868;2024-02-28T01:05:20;268.10;;;39.47;;
69910;SDS011;63555;49.920;17.868;2024-02-28T01:10:20;188.37;;;37.90;;
69910;SDS011;63555;49.920;17.868;2024-02-28T01:15:21;187.20;;;37.58;;
69910;SDS011;63555;49.920;17.868;2024-02-28T01:20:22;156.27;;;35.43;;
69910;SDS011;63555;49.920;17.868;2024-02-28T01:25:22;163.47;;;37.77;;
69910;SDS011;63555;49.920;17.868;2024-02-28T01:30:23;187.83;;;37.97;;
69910;SDS011;63555;49.920;17.868;2024-02-28T01:35:23;221.23;;;38.08;;
69910;SDS011;63555;49.920;17.868;2024-02-28T01:40:23;205.77;;;38.87;;
69910;SDS011;63555;49.920;17.868;2024-02-28T01:45:24;167.87;;;38.17;;
69910;SDS011;63555;49.920;17.868;2024-02-28T01:50:24;151.33;;;36.60;;
69910;SDS011;63555;49.920;17.868;2024-02-28T01:55:25;185.10;;;37.73;;
69910;SDS011;63555;49.920;17.868;2024-02-28T02:00:26;219.75;;;42.58;;
69910;SDS011;63555;49.920;17.868;2024-02-28T02:05:28;225.00;;;40.53;;
69910;SDS011;63555;49.920;17.868;2024-02-28T02:10:28;199.27;;;42.50;;
69910;SDS011;63555;49.920;17.868;2024-02-28T02:15:28;210.57;;;42.60;;
69910;SDS011;63555;49.920;17.868;2024-02-28T02:20:32;195.77;;;42.40;;
69910;SDS011;63555;49.920;17.868;2024-02-28T02:25:33;244.10;;;38.88;;
69910;SDS011;63555;49.920;17.868;2024-02-28T02:30:34;239.50;;;43.23;;
69910;SDS011;63555;49.920;17.868;2024-02-28T02:35:34;214.27;;;37.67;;
69910;SDS011;63555;49.920;17.868;2024-02-28T02:40:38;229.80;;;40.83;;
69910;SDS011;63555;49.920;17.868;2024-02-28T02:45:38;240.65;;;44.05;;
69910;SDS011;63555;49.920;17.868;2024-02-28T02:50:39;231.97;;;43.73;;
69910;SDS011;63555;49.920;17.868;2024-02-28T02:55:39;238.60;;;44.87;;
69910;SDS011;63555;49.920;17.868;2024-02-28T03:00:39;251.23;;;44.27;;
69910;SDS011;63555;49.920;17.868;2024-02-28T03:05:40;239.50;;;43.40;;
69910;SDS011;63555;49.920;17.868;2024-02-28T03:10:40;216.27;;;42.07;;
69910;SDS011;63555;49.920;17.868;2024-02-28T03:15:40;213.13;;;41.43;;
69910;SDS011;63555;49.920;17.868;2024-02-28T03:20:41;259.23;;;42.43;;
69910;SDS011;63555;49.920;17.868;2024-02-28T03:25:41;306.23;;;44.90;;
69910;SDS011;63555;49.920;17.868;2024-02-28T03:30:42;359.50;;;46.97;;
69910;SDS011;63555;49.920;17.868;2024-02-28T03:35:42;492.93;;;53.50;;
69910;SDS011;63555;49.920;17.868;2024-02-28T03:40:43;514.03;;;53.50;;
69910;SDS011;63555;49.920;17.868;2024-02-28T03:45:43;497.70;;;53.83;;
69910;SDS011;63555;49.920;17.868;2024-02-28T03:50:43;607.10;;;55.63;;
69910;SDS011;63555;49.920;17.868;2024-02-28T03:55:44;602.37;;;53.47;;
69910;SDS011;63555;49.920;17.868;2024-02-28T04:00:44;400.93;;;46.40;;
69910;SDS011;63555;49.920;17.868;2024-02-28T04:05:46;472.80;;;48.47;;
69910;SDS011;63555;49.920;17.868;2024-02-28T04:10:46;379.13;;;47.20;;
69910;SDS011;63555;49.920;17.868;2024-02-28T04:15:46;488.70;;;48.83;;
69910;SDS011;63555;49.920;17.868;2024-02-28T04:20:47;548.53;;;54.33;;
69910;SDS011;63555;49.920;17.868;2024-02-28T04:25:47;401.27;;;48.23;;
69910;SDS011;63555;49.920;17.868;2024-02-28T04:30:47;822.10;;;69.50;;
69910;SDS011;63555;49.920;17.868;2024-02-28T04:35:48;505.67;;;51.27;;
69910;SDS011;63555;49.920;17.868;2024-02-28T04:40:48;441.73;;;48.13;;
69910;SDS011;63555;49.920;17.868;2024-02-28T04:45:49;579.65;;;54.63;;
69910;SDS011;63555;49.920;17.868;2024-02-28T04:50:51;472.47;;;51.50;;
69910;SDS011;63555;49.920;17.868;2024-02-28T04:55:51;394.75;;;46.35;;
69910;SDS011;63555;49.920;17.868;2024-02-28T05:00:52;466.53;;;51.37;;
69910;SDS011;63555;49.920;17.868;2024-02-28T05:05:52;599.47;;;56.40;;
69910;SDS011;63555;49.920;17.868;2024-02-28T05:10:52;420.80;;;49.13;;
69910;SDS011;63555;49.920;17.868;2024-02-28T05:15:53;397.93;;;49.63;;
69910;SDS011;63555;49.920;17.868;2024-02-28T05:20:53;351.00;;;47.90;;
69910;SDS011;63555;49.920;17.868;2024-02-28T05:25:53;329.77;;;45.97;;
69910;SDS011;63555;49.920;17.868;2024-02-28T05:30:54;501.80;;;53.13;;
69910;SDS011;63555;49.920;17.868;2024-02-28T05:35:54;318.00;;;46.93;;
69910;SDS011;63555;49.920;17.868;2024-02-28T05:40:55;435.97;;;49.83;;
69910;SDS011;63555;49.920;17.868;2024-02-28T05:45:55;456.17;;;48.90;;
69910;SDS011;63555;49.920;17.868;2024-02-28T05:50:55;402.90;;;44.60;;
69910;SDS011;63555;49.920;17.868;2024-02-28T05:55:56;332.90;;;45.23;;
69910;SDS011;63555;49.920;17.868;2024-02-28T06:00:57;389.80;;;48.47;;
69910;SDS011;63555;49.920;17.868;2024-02-28T06:05:57;511.17;;;48.15;;
69910;SDS011;63555;49.920;17.868;2024-02-28T06:10:58;362.03;;;47.30;;
69910;SDS011;63555;49.920;17.868;2024-02-28T06:15:58;261.70;;;43.83;;
69910;SDS011;63555;49.920;17.868;2024-02-28T06:20:59;224.80;;;40.47;;
69910;SDS011;63555;49.920;17.868;2024-02-28T06:26:00;217.40;;;42.67;;
69910;SDS011;63555;49.920;17.868;2024-02-28T06:31:00;260.70;;;42.33;;
69910;SDS011;63555;49.920;17.868;2024-02-28T06:36:01;249.20;;;44.77;;
69910;SDS011;63555;49.920;17.868;2024-02-28T06:41:02;203.60;;;41.57;;
69910;SDS011;63555;49.920;17.868;2024-02-28T06:46:04;197.93;;;39.90;;
69910;SDS011;63555;49.920;17.868;2024-02-28T06:51:04;261.27;;;41.53;;
69910;SDS011;63555;49.920;17.868;2024-02-28T06:56:09;261.45;;;37.13;;
69910;SDS011;63555;49.920;17.868;2024-02-28T07:01:09;206.10;;;40.00;;
69910;SDS011;63555;49.920;17.868;2024-02-28T07:06:10;225.83;;;36.03;;
69910;SDS011;63555;49.920;17.868;2024-02-28T07:11:14;160.40;;;37.25;;
69910;SDS011;63555;49.920;17.868;2024-02-28T07:16:15;182.60;;;38.53;;
69910;SDS011;63555;49.920;17.868;2024-02-28T07:21:15;152.40;;;37.67;;
69910;SDS011;63555;49.920;17.868;2024-02-28T07:26:16;139.17;;;34.43;;
69910;SDS011;63555;49.920;17.868;2024-02-28T07:31:17;142.02;;;38.33;;
69910;SDS011;63555;49.920;17.868;2024-02-28T07:36:19;184.07;;;36.37;;
69910;SDS011;63555;49.920;17.868;2024-02-28T07:41:19;175.38;;;37.97;;
69910;SDS011;63555;49.920;17.868;2024-02-28T07:46:20;193.33;;;38.27;;
69910;SDS011;63555;49.920;17.868;2024-02-28T07:51:20;189.57;;;37.23;;
69910;SDS011;63555;49.920;17.868;2024-02-28T07:56:22;161.33;;;36.33;;
69910;SDS011;63555;49.920;17.868;2024-02-28T08:01:22;151.27;;;34.10;;
69910;SDS011;63555;49.920;17.868;2024-02-28T08:06:22;140.87;;;35.60;;
69910;SDS011;63555;49.920;17.868;2024-02-28T08:11:24;154.68;;;34.00;;
69910;SDS011;63555;49.920;17.868;2024-02-28T08:16:25;125.57;;;33.13;;
69910;SDS011;63555;49.920;17.868;2024-02-28T08:21:25;143.47;;;35.57;;
69910;SDS011;63555;49.920;17.868;2024-02-28T08:26:26;151.73;;;35.85;;
69910;SDS011;63555;49.920;17.868;2024-02-28T08:31:27;150.37;;;34.97;;
69910;SDS011;63555;49.920;17.868;2024-02-28T08:36:28;149.98;;;31.40;;
69910;SDS011;63555;49.920;17.868;2024-02-28T08:41:28;167.77;;;34.57;;
69910;SDS011;63555;49.920;17.868;2024-02-28T08:46:28;166.47;;;35.80;;
69910;SDS011;63555;49.920;17.868;2024-02-28T08:51:29;155.50;;;33.37;;
69910;SDS011;63555;49.920;17.868;2024-02-28T08:56:29;179.03;;;36.03;;
69910;SDS011;63555;49.920;17.868;2024-02-28T09:01:29;131.90;;;32.03;;
69910;SDS011;63555;49.920;17.868;2024-02-28T09:06:30;131.53;;;32.37;;
69910;SDS011;63555;49.920;17.868;2024-02-28T09:11:30;94.37;;;28.90;;
69910;SDS011;63555;49.920;17.868;2024-02-28T09:16:30;104.40;;;29.27;;
69910;SDS011;63555;49.920;17.868;2024-02-28T09:21:31;85.82;;;26.08;;
69910;SDS011;63555;49.920;17.868;2024-02-28T09:26:31;77.10;;;24.27;;
69910;SDS011;63555;49.920;17.868;2024-02-28T09:31:32;71.55;;;22.70;;
69910;SDS011;63555;49.920;17.868;2024-02-28T09:36:32;78.40;;;25.17;;
69910;SDS011;63555;49.920;17.868;2024-02-28T09:41:34;75.70;;;24.07;;
69910;SDS011;63555;49.920;17.868;2024-02-28T09:46:36;74.10;;;25.00;;
69910;SDS011;63555;49.920;17.868;2024-02-28T09:51:37;80.37;;;25.23;;
69910;SDS011;63555;49.920;17.868;2024-02-28T09:56:37;71.73;;;25.00;;
69910;SDS011;63555;49.920;17.868;2024-02-28T10:01:42;72.23;;;26.80;;
69910;SDS011;63555;49.920;17.868;2024-02-28T10:06:46;67.65;;;24.02;;
69910;SDS011;63555;49.920;17.868;2024-02-28T10:11:49;68.70;;;25.33;;
69910;SDS011;63555;49.920;17.868;2024-02-28T10:16:50;68.97;;;24.90;;
69910;SDS011;63555;49.920;17.868;2024-02-28T10:21:51;69.70;;;24.67;;
69910;SDS011;63555;49.920;17.868;2024-02-28T10:26:52;68.97;;;24.70;;
69910;SDS011;63555;49.920;17.868;2024-02-28T10:31:59;63.65;;;23.30;;
69910;SDS011;63555;49.920;17.868;2024-02-28T10:37:00;61.83;;;22.13;;
69910;SDS011;63555;49.920;17.868;2024-02-28T10:42:01;58.10;;;21.83;;
69910;SDS011;63555;49.920;17.868;2024-02-28T10:47:03;53.57;;;20.63;;
69910;SDS011;63555;49.920;17.868;2024-02-28T10:52:05;60.60;;;22.17;;
69910;SDS011;63555;49.920;17.868;2024-02-28T10:57:08;52.22;;;20.38;;
69910;SDS011;63555;49.920;17.868;2024-02-28T11:02:12;52.87;;;20.57;;
69910;SDS011;63555;49.920;17.868;2024-02-28T11:07:19;52.05;;;20.17;;
69910;SDS011;63555;49.920;17.868;2024-02-28T11:12:24;48.60;;;21.13;;
69910;SDS011;63555;49.920;17.868;2024-02-28T11:17:31;53.00;;;21.15;;
69910;SDS011;63555;49.920;17.868;2024-02-28T11:22:32;53.38;;;21.27;;
69910;SDS011;63555;49.920;17.868;2024-02-28T11:27:44;57.17;;;21.90;;
69910;SDS011;63555;49.920;17.868;2024-02-28T11:32:45;60.85;;;21.60;;
69910;SDS011;63555;49.920;17.868;2024-02-28T11:37:46;55.80;;;21.60;;
69910;SDS011;63555;49.920;17.868;2024-02-28T11:42:48;60.77;;;23.23;;
69910;SDS011;63555;49.920;17.868;2024-02-28T11:47:49;56.67;;;23.17;;
69910;SDS011;63555;49.920;17.868;2024-02-28T11:52:49;54.93;;;21.83;;
69910;SDS011;63555;49.920;17.868;2024-02-28T11:57:49;60.37;;;23.03;;
69910;SDS011;63555;49.920;17.868;2024-02-28T12:02:51;54.97;;;20.60;;
69910;SDS011;63555;49.920;17.868;2024-02-28T12:07:52;64.10;;;23.90;;
69910;SDS011;63555;49.920;17.868;2024-02-28T12:12:58;61.00;;;21.57;;
69910;SDS011;63555;49.920;17.868;2024-02-28T12:17:59;57.38;;;21.55;;
69910;SDS011;63555;49.920;17.868;2024-02-28T12:22:59;55.00;;;22.13;;
69910;SDS011;63555;49.920;17.868;2024-02-28T12:28:00;50.87;;;20.57;;
69910;SDS011;63555;49.920;17.868;2024-02-28T12:33:01;45.17;;;19.13;;
69910;SDS011;63555;49.920;17.868;2024-02-28T12:38:01;44.13;;;19.27;;
69910;SDS011;63555;49.920;17.868;2024-02-28T12:43:02;39.10;;;17.60;;
69910;SDS011;63555;49.920;17.868;2024-02-28T12:48:03;42.25;;;17.20;;
69910;SDS011;63555;49.920;17.868;2024-02-28T12:53:05;41.10;;;16.17;;
69910;SDS011;63555;49.920;17.868;2024-02-28T12:58:05;40.63;;;16.40;;
69910;SDS011;63555;49.920;17.868;2024-02-28T13:03:06;40.37;;;17.20;;
69910;SDS011;63555;49.920;17.868;2024-02-28T13:08:06;41.47;;;16.23;;
69910;SDS011;63555;49.920;17.868;2024-02-28T13:13:07;37.63;;;16.90;;
69910;SDS011;63555;49.920;17.868;2024-02-28T13:18:07;38.23;;;15.00;;
69910;SDS011;63555;49.920;17.868;2024-02-28T13:23:10;41.85;;;15.65;;
69910;SDS011;63555;49.920;17.868;2024-02-28T13:28:11;41.50;;;16.70;;
69910;SDS011;63555;49.920;17.868;2024-02-28T13:33:11;43.30;;;17.03;;
69910;SDS011;63555;49.920;17.868;2024-02-28T13:38:12;43.13;;;16.80;;
69910;SDS011;63555;49.920;17.868;2024-02-28T13:43:12;38.97;;;16.07;;
69910;SDS011;63555;49.920;17.868;2024-02-28T13:48:20;41.77;;;17.67;;
69910;SDS011;63555;49.920;17.868;2024-02-28T13:53:24;43.92;;;15.60;;
69910;SDS011;63555;49.920;17.868;2024-02-28T13:58:24;42.50;;;17.10;;
69910;SDS011;63555;49.920;17.868;2024-02-28T14:03:25;43.60;;;16.00;;
69910;SDS011;63555;49.920;17.868;2024-02-28T14:08:25;44.47;;;16.43;;
69910;SDS011;63555;49.920;17.868;2024-02-28T14:13:26;42.42;;;14.65;;
69910;SDS011;63555;49.920;17.868;2024-02-28T14:18:27;49.28;;;15.10;;
69910;SDS011;63555;49.920;17.868;2024-02-28T14:23:27;44.40;;;14.97;;
69910;SDS011;63555;49.920;17.868;2024-02-28T14:28:27;51.37;;;16.77;;
69910;SDS011;63555;49.920;17.868;2024-02-28T14:33:28;53.43;;;17.93;;
69910;SDS011;63555;49.920;17.868;2024-02-28T14:38:29;46.83;;;17.73;;
69910;SDS011;63555;49.920;17.868;2024-02-28T14:43:29;53.03;;;17.37;;
69910;SDS011;63555;49.920;17.868;2024-02-28T14:48:30;44.05;;;16.63;;
69910;SDS011;63555;49.920;17.868;2024-02-28T14:53:31;40.67;;;15.10;;
69910;SDS011;63555;49.920;17.868;2024-02-28T14:58:31;30.67;;;11.80;;
69910;SDS011;63555;49.920;17.868;2024-02-28T15:03:31;34.10;;;12.97;;
69910;SDS011;63555;49.920;17.868;2024-02-28T15:08:32;22.83;;;9.93;;
69910;SDS011;63555;49.920;17.868;2024-02-28T15:13:32;16.50;;;7.63;;
69910;SDS011;63555;49.920;17.868;2024-02-28T15:18:32;15.87;;;5.97;;
69910;SDS011;63555;49.920;17.868;2024-02-28T15:23:33;14.50;;;6.65;;
69910;SDS011;63555;49.920;17.868;2024-02-28T15:28:34;13.38;;;6.60;;
69910;SDS011;63555;49.920;17.868;2024-02-28T15:33:35;10.40;;;5.40;;
69910;SDS011;63555;49.920;17.868;2024-02-28T15:38:35;13.07;;;5.43;;
69910;SDS011;63555;49.920;17.868;2024-02-28T15:43:36;11.93;;;5.67;;
69910;SDS011;63555;49.920;17.868;2024-02-28T15:48:36;18.60;;;7.25;;
69910;SDS011;63555;49.920;17.868;2024-02-28T15:53:37;21.08;;;8.93;;
69910;SDS011;63555;49.920;17.868;2024-02-28T15:58:37;17.88;;;8.68;;
69910;SDS011;63555;49.920;17.868;2024-02-28T16:03:39;16.55;;;8.30;;
69910;SDS011;63555;49.920;17.868;2024-02-28T16:08:41;16.40;;;7.82;;
69910;SDS011;63555;49.920;17.868;2024-02-28T16:13:42;16.80;;;7.87;;
69910;SDS011;63555;49.920;17.868;2024-02-28T16:18:43;22.53;;;7.97;;
69910;SDS011;63555;49.920;17.868;2024-02-28T16:23:43;21.33;;;8.23;;
69910;SDS011;63555;49.920;17.868;2024-02-28T16:28:44;20.50;;;7.70;;
69910;SDS011;63555;49.920;17.868;2024-02-28T16:33:47;15.37;;;6.57;;
69910;SDS011;63555;49.920;17.868;2024-02-28T16:38:48;12.33;;;5.90;;
69910;SDS011;63555;49.920;17.868;2024-02-28T16:43:48;16.02;;;6.60;;
69910;SDS011;63555;49.920;17.868;2024-02-28T16:48:50;13.40;;;5.93;;
69910;SDS011;63555;49.920;17.868;2024-02-28T16:53:51;14.17;;;6.20;;
69910;SDS011;63555;49.920;17.868;2024-02-28T16:58:51;17.30;;;7.40;;
69910;SDS011;63555;49.920;17.868;2024-02-28T17:03:51;11.50;;;6.30;;
69910;SDS011;63555;49.920;17.868;2024-02-28T17:08:52;17.40;;;8.03;;
69910;SDS011;63555;49.920;17.868;2024-02-28T17:13:52;15.03;;;7.47;;
69910;SDS011;63555;49.920;17.868;2024-02-28T17:18:53;24.63;;;8.90;;
69910;SDS011;63555;49.920;17.868;2024-02-28T17:23:53;16.37;;;7.43;;
69910;SDS011;63555;49.920;17.868;2024-02-28T17:28:53;17.80;;;8.13;;
69910;SDS011;63555;49.920;17.868;2024-02-28T17:33:54;16.95;;;8.07;;
69910;SDS011;63555;49.920;17.868;2024-02-28T17:38:55;16.57;;;8.20;;
69910;SDS011;63555;49.920;17.868;2024-02-28T17:43:55;20.27;;;8.73;;
69910;SDS011;63555;49.920;17.868;2024-02-28T17:48:55;20.53;;;9.07;;
69910;SDS011;63555;49.920;17.868;2024-02-28T17:53:56;25.23;;;9.80;;
69910;SDS011;63555;49.920;17.868;2024-02-28T17:58:56;22.30;;;10.27;;
69910;SDS011;63555;49.920;17.868;2024-02-28T18:03:56;19.67;;;9.10;;
69910;SDS011;63555;49.920;17.868;2024-02-28T18:08:57;20.63;;;8.83;;
69910;SDS011;63555;49.920;17.868;2024-02-28T18:13:58;19.60;;;8.02;;
69910;SDS011;63555;49.920;17.868;2024-02-28T18:18:59;24.10;;;9.93;;
69910;SDS011;63555;49.920;17.868;2024-02-28T18:23:59;19.63;;;8.33;;
69910;SDS011;63555;49.920;17.868;2024-02-28T18:29:00;22.33;;;8.87;;
69910;SDS011;63555;49.920;17.868;2024-02-28T18:34:00;18.67;;;8.20;;
69910;SDS011;63555;49.920;17.868;2024-02-28T18:39:00;19.53;;;7.40;;
69910;SDS011;63555;49.920;17.868;2024-02-28T18:44:02;20.75;;;7.93;;
69910;SDS011;63555;49.920;17.868;2024-02-28T18:49:04;22.27;;;8.02;;
69910;SDS011;63555;49.920;17.868;2024-02-28T18:54:05;21.57;;;8.33;;
69910;SDS011;63555;49.920;17.868;2024-02-28T18:59:05;15.83;;;7.57;;
69910;SDS011;63555;49.920;17.868;2024-02-28T19:04:06;15.57;;;6.57;;
69910;SDS011;63555;49.920;17.868;2024-02-28T19:09:06;17.33;;;6.80;;
69910;SDS011;63555;49.920;17.868;2024-02-28T19:14:09;15.95;;;7.22;;
69910;SDS011;63555;49.920;17.868;2024-02-28T19:19:09;19.07;;;7.27;;
69910;SDS011;63555;49.920;17.868;2024-02-28T19:24:09;18.13;;;7.23;;
69910;SDS011;63555;49.920;17.868;2024-02-28T19:29:10;18.63;;;7.93;;
69910;SDS011;63555;49.920;17.868;2024-02-28T19:34:11;23.87;;;9.07;;
69910;SDS011;63555;49.920;17.868;2024-02-28T19:39:16;22.27;;;8.45;;
69910;SDS011;63555;49.920;17.868;2024-02-28T19:44:16;24.80;;;9.47;;
69910;SDS011;63555;49.920;17.868;2024-02-28T19:49:17;22.77;;;8.63;;
69910;SDS011;63555;49.920;17.868;2024-02-28T19:54:17;23.80;;;8.30;;
69910;SDS011;63555;49.920;17.868;2024-02-28T19:59:17;24.07;;;9.13;;
69910;SDS011;63555;49.920;17.868;2024-02-28T20:04:18;28.70;;;9.60;;
69910;SDS011;63555;49.920;17.868;2024-02-28T20:09:18;24.60;;;8.03;;
69910;SDS011;63555;49.920;17.868;2024-02-28T20:14:19;24.60;;;8.00;;
69910;SDS011;63555;49.920;17.868;2024-02-28T20:19:19;21.93;;;7.77;;
69910;SDS011;63555;49.920;17.868;2024-02-28T20:24:19;23.23;;;7.77;;
69910;SDS011;63555;49.920;17.868;2024-02-28T20:29:20;28.50;;;7.67;;
69910;SDS011;63555;49.920;17.868;2024-02-28T20:34:20;23.43;;;8.70;;
69910;SDS011;63555;49.920;17.868;2024-02-28T20:39:21;25.83;;;9.20;;
69910;SDS011;63555;49.920;17.868;2024-02-28T20:44:21;28.47;;;10.17;;
69910;SDS011;63555;49.920;17.868;2024-02-28T20:49:24;33.15;;;10.02;;
69910;SDS011;63555;49.920;17.868;2024-02-28T20:54:24;32.73;;;10.53;;
69910;SDS011;63555;49.920;17.868;2024-02-28T20:59:24;29.00;;;10.23;;
69910;SDS011;63555;49.920;17.868;2024-02-28T21:04:26;30.33;;;9.90;;
69910;SDS011;63555;49.920;17.868;2024-02-28T21:09:27;32.58;;;10.45;;
69910;SDS011;63555;49.920;17.868;2024-02-28T21:14:27;37.33;;;11.40;;
69910;SDS011;63555;49.920;17.868;2024-02-28T21:19:27;38.70;;;12.27;;
69910;SDS011;63555;49.920;17.868;2024-02-28T21:24:29;58.00;;;13.23;;
69910;SDS011;63555;49.920;17.868;2024-02-28T21:29:31;66.20;;;13.73;;
69910;SDS011;63555;49.920;17.868;2024-02-28T21:34:31;42.37;;;11.40;;
69910;SDS011;63555;49.920;17.868;2024-02-28T21:39:31;36.33;;;10.57;;
69910;SDS011;63555;49.920;17.868;2024-02-28T21:44:34;37.13;;;10.05;;
69910;SDS011;63555;49.920;17.868;2024-02-28T21:49:35;34.07;;;10.37;;
69910;SDS011;63555;49.920;17.868;2024-02-28T21:54:39;38.93;;;9.10;;
69910;SDS011;63555;49.920;17.868;2024-02-28T21:59:41;28.08;;;9.13;;
69910;SDS011;63555;49.920;17.868;2024-02-28T22:04:41;31.57;;;9.00;;
69910;SDS011;63555;49.920;17.868;2024-02-28T22:09:41;28.93;;;9.23;;
69910;SDS011;63555;49.920;17.868;2024-02-28T22:14:42;31.42;;;8.65;;
69910;SDS011;63555;49.920;17.868;2024-02-28T22:19:42;25.77;;;8.20;;
69910;SDS011;63555;49.920;17.868;2024-02-28T22:24:42;27.33;;;7.60;;
69910;SDS011;63555;49.920;17.868;2024-02-28T22:29:43;21.77;;;6.93;;
69910;SDS011;63555;49.920;17.868;2024-02-28T22:34:43;22.07;;;7.60;;
69910;SDS011;63555;49.920;17.868;2024-02-28T22:39:44;16.90;;;5.93;;
69910;SDS011;63555;49.920;17.868;2024-02-28T22:44:44;16.70;;;5.53;;
69910;SDS011;63555;49.920;17.868;2024-02-28T22:49:45;18.13;;;6.85;;
69910;SDS011;63555;49.920;17.868;2024-02-28T22:54:45;21.23;;;6.50;;
69910;SDS011;63555;49.920;17.868;2024-02-28T22:59:45;25.57;;;6.57;;
69910;SDS011;63555;49.920;17.868;2024-02-28T23:04:46;21.75;;;6.63;;
69910;SDS011;63555;49.920;17.868;2024-02-28T23:09:46;22.70;;;5.80;;
69910;SDS011;63555;49.920;17.868;2024-02-28T23:14:46;16.70;;;5.43;;
69910;SDS011;63555;49.920;17.868;2024-02-28T23:19:47;20.20;;;5.53;;
69910;SDS011;63555;49.920;17.868;2024-02-28T23:24:47;18.57;;;5.93;;
69910;SDS011;63555;49.920;17.868;2024-02-28T23:29:48;20.93;;;6.60;;
69910;SDS011;63555;49.920;17.868;2024-02-28T23:34:48;20.97;;;6.03;;
69910;SDS011;63555;49.920;17.868;2024-02-28T23:39:48;22.67;;;6.33;;
69910;SDS011;63555;49.920;17.868;2024-02-28T23:44:52;22.37;;;6.77;;
69910;SDS011;63555;49.920;17.868;2024-02-28T23:49:52;23.58;;;6.93;;
69910;SDS011;63555;49.920;17.868;2024-02-28T23:54:53;31.13;;;8.07;;
69910;SDS011;63555;49.920;17.868;2024-02-28T23:59:54;44.90;;;7.50;;
